Stations météo

Publicité
Katesbridge, Grande-Bretagne (99014): Température de l'air & dewpoint: 18.01.2021 06:00:00 - 24.01.2021 06:00:00 (GMT)Katesbridge, Grande-Bretagne (99014): Vitesse du vent: 18.01.2021 06:00:00 - 24.01.2021 06:00:00 (GMT)Katesbridge, Grande-Bretagne (99014): Direction du vent: 18.01.2021 06:00:00 - 24.01.2021 06:00:00 (GMT)Katesbridge, Grande-Bretagne (99014): Ensoleillement: 18.01.2021 06:00:00 - 24.01.2021 06:00:00 (GMT)Katesbridge, Grande-Bretagne (99014): Quantités de précipitations: 18.01.2021 06:00:00 - 24.01.2021 06:00:00 (GMT)
Date & Time tt [°C] td [°C] ff [km/h] ff [knt] dd sd [min] rr [mm]
24.01.2021 06:00:00 - - - - - - -
24.01.2021 05:00:00 0,1 -0,7 4 2 E 0 0,0
24.01.2021 04:00:00 -0,9 -1,7 4 2 E 0 0,0
24.01.2021 03:00:00 -0,7 -1,7 5 3 E 0 0,0
24.01.2021 02:00:00 -0,3 -1,4 5 3 WSW 0 0,0
24.01.2021 01:00:00 -2,2 -2,9 2 1 E 0 0,0
24.01.2021 00:00:00 -2,1 -3,1 2 1 NNE - 0,0
23.01.2021 23:00:00 -1,8 -2,6 8 4 ESE 0 0,0
23.01.2021 22:00:00 -2,8 -3,3 2 1 E 0 0,0
23.01.2021 21:00:00 -2,9 -3,3 4 2 E 0 0,0
23.01.2021 20:00:00 -3,3 -3,9 2 1 E 0 0,0
23.01.2021 19:00:00 -3,0 -3,7 2 1 E 0 0,0
23.01.2021 18:00:00 -2,0 -3,1 2 1 WNW 0 0,0
23.01.2021 17:00:00 -1,1 -3,0 2 1 ENE 0 0,0
23.01.2021 16:00:00 1,5 -1,6 2 1 WSW 0 0,0
23.01.2021 15:00:00 1,8 -1,9 4 2 WNW 30 0,0
23.01.2021 14:00:00 2,9 -0,7 5 3 WNW 60 0,0
23.01.2021 13:00:00 2,9 0,1 5 3 NW 60 0,0
23.01.2021 12:00:00 1,7 -0,1 8 4 WNW 60 0,0
23.01.2021 11:00:00 0,6 -0,3 5 3 NW 60 0,0
23.01.2021 10:00:00 -0,4 -0,8 5 3 NNW 36 0,0
23.01.2021 09:00:00 -3,3 -3,7 4 2 NW 0 0,0
23.01.2021 08:00:00 -3,5 -3,9 2 1 NW 0 0,0
23.01.2021 07:00:00 -2,2 -2,6 5 3 NNW 0 0,0
23.01.2021 06:00:00 -2,6 -2,9 4 2 NNW 0 0,0
23.01.2021 05:00:00 -2,9 -3,2 4 2 WNW 0 0,0
23.01.2021 04:00:00 -2,5 -2,7 4 2 WNW 0 0,0
23.01.2021 03:00:00 -3,7 -3,9 4 2 NNW 0 0,0
23.01.2021 02:00:00 -5,3 -5,8 2 1 ESE 0 0,0
23.01.2021 01:00:00 -4,7 -5,1 2 1 S 0 0,0
23.01.2021 00:00:00 -4,9 -5,6 2 1 E - 0,0
22.01.2021 23:00:00 -4,1 -4,7 0 0 N 0 0,0
22.01.2021 22:00:00 -2,8 -3,2 0 0 N 0 0,0
22.01.2021 21:00:00 -2,8 -3,3 4 2 NE 0 0,0
22.01.2021 20:00:00 -1,9 -2,4 2 1 NNW 0 0,0
22.01.2021 19:00:00 -0,5 -1,2 4 2 N 0 0,0
22.01.2021 18:00:00 0,4 -0,8 5 3 NW 0 0,0
22.01.2021 17:00:00 1,7 0,0 8 4 WNW 0 0,0
22.01.2021 16:00:00 3,5 0,8 5 3 WNW 6 0,0
22.01.2021 15:00:00 3,7 0,8 9 5 WNW 24 0,0
22.01.2021 14:00:00 3,2 0,3 13 7 NW 30 0,0
22.01.2021 13:00:00 4,3 1,4 11 6 W 60 0,2
22.01.2021 12:00:00 3,0 0,7 9 5 W 54 0,0
22.01.2021 11:00:00 2,0 0,2 5 3 S 60 0,0
22.01.2021 10:00:00 -0,2 -1,2 2 1 NE 36 0,0
22.01.2021 09:00:00 -0,1 -1,1 5 3 WNW 0 0,0
22.01.2021 08:00:00 -0,1 -0,7 5 3 NNW 0 0,0
22.01.2021 07:00:00 -1,6 -2,1 4 2 NW 0 0,0
22.01.2021 06:00:00 -2,5 -3,1 2 1 NW 0 0,0
22.01.2021 05:00:00 -1,7 -2,3 4 2 NNW 0 0,0
22.01.2021 04:00:00 -0,3 -0,6 5 3 WNW 0 0,0
22.01.2021 03:00:00 -1,3 -1,5 2 1 WNW 0 0,0
22.01.2021 02:00:00 -1,2 -1,3 4 2 WNW 0 0,0
22.01.2021 01:00:00 -2,0 -2,1 2 1 W 0 0,0
22.01.2021 00:00:00 -3,0 -3,4 2 1 SSE - 0,0
21.01.2021 23:00:00 -1,7 -2,0 2 1 NW 0 0,0
21.01.2021 22:00:00 -1,3 -1,5 4 2 NNW 0 0,0
21.01.2021 21:00:00 -2,0 -2,6 4 2 W 0 0,0
21.01.2021 20:00:00 -0,6 -1,7 2 1 NW 0 0,0
21.01.2021 19:00:00 1,3 0,1 5 3 WNW 0 0,0
21.01.2021 18:00:00 1,8 0,4 5 3 NW 0 0,0
21.01.2021 17:00:00 3,1 0,9 8 4 NW 0 0,0
21.01.2021 16:00:00 4,5 1,0 11 6 NW 6 0,0
21.01.2021 15:00:00 6,1 1,6 15 8 NW 36 0,0
21.01.2021 14:00:00 6,5 2,6 13 7 WNW 60 0,0
21.01.2021 13:00:00 5,8 2,3 15 8 WNW 60 0,0
21.01.2021 12:00:00 5,6 3,1 13 7 WNW 60 0,0
21.01.2021 11:00:00 4,2 2,5 9 5 WNW 48 0,0
21.01.2021 10:00:00 3,0 2,0 11 6 WNW 0 0,0
21.01.2021 09:00:00 2,8 2,0 15 8 WNW 0 0,0
21.01.2021 08:00:00 2,7 2,0 16 9 W 0 0,6
21.01.2021 07:00:00 2,3 1,7 18 10 W 0 0,0
21.01.2021 06:00:00 1,4 0,7 21 11 W 0 1,2
21.01.2021 05:00:00 1,9 0,6 21 11 W 0 0,0
21.01.2021 04:00:00 1,5 0,6 18 10 W 0 0,0
21.01.2021 03:00:00 0,1 -0,6 11 6 WSW 0 0,0
21.01.2021 02:00:00 0,2 -0,3 8 4 WNW 0 0,0
21.01.2021 01:00:00 -0,1 -0,6 5 3 WNW 0 0,0
21.01.2021 00:00:00 0,4 -0,1 8 4 WNW - 0,0
20.01.2021 23:00:00 0,9 0,6 8 4 WNW 0 0,0
20.01.2021 22:00:00 0,9 0,4 8 4 NW 0 0,0
20.01.2021 21:00:00 1,4 1,0 8 4 NW 0 0,0
20.01.2021 20:00:00 1,6 1,2 8 4 NW 0 0,0
20.01.2021 19:00:00 2,1 1,7 8 4 WNW 0 0,0
20.01.2021 18:00:00 2,4 2,1 4 2 NW 0 0,0
20.01.2021 17:00:00 2,2 1,7 4 2 NW 0 0,0
20.01.2021 16:00:00 2,5 1,8 5 3 NW 0 0,0
20.01.2021 15:00:00 2,6 2,1 5 3 NNW 0 0,0
20.01.2021 14:00:00 2,6 2,1 5 3 NW 0 0,0
20.01.2021 13:00:00 2,5 1,9 5 3 NNW 0 0,0
20.01.2021 12:00:00 2,6 2,1 4 2 NNW 0 0,0
20.01.2021 11:00:00 2,7 2,4 5 3 N 0 0,0
20.01.2021 10:00:00 2,8 2,6 5 3 NNW 0 0,0
20.01.2021 09:00:00 2,8 2,7 2 1 NNW 0 0,0
20.01.2021 08:00:00 2,6 2,4 4 2 NNW 0 0,0
20.01.2021 07:00:00 2,6 2,4 4 2 NW 0 0,2
20.01.2021 06:00:00 2,6 2,4 2 1 WNW 0 0,6
20.01.2021 05:00:00 2,8 2,6 4 2 WNW 0 0,4
20.01.2021 04:00:00 3,1 2,8 5 3 NNW 0 0,2
20.01.2021 03:00:00 3,4 3,1 8 4 NNW 0 0,0
20.01.2021 02:00:00 3,8 3,5 4 2 NNW 0 0,4
20.01.2021 01:00:00 4,2 3,9 5 3 N 0 1,2
20.01.2021 00:00:00 4,4 3,9 5 3 N - 0,4
19.01.2021 23:00:00 4,7 4,2 9 5 NNE 0 1,4
19.01.2021 22:00:00 5,1 4,6 13 7 NE 0 1,0
19.01.2021 21:00:00 5,8 5,3 9 5 ENE 0 0,6
19.01.2021 20:00:00 6,6 6,0 9 5 NNE 0 1,0
19.01.2021 19:00:00 10,1 9,9 15 8 SW 0 0,4
19.01.2021 18:00:00 10,0 9,8 13 7 SW 0 0,0
19.01.2021 17:00:00 9,9 9,6 13 7 SW 0 0,4
19.01.2021 16:00:00 9,9 9,6 13 7 SW 0 0,4
19.01.2021 15:00:00 9,7 9,5 11 6 WSW 0 0,4
19.01.2021 14:00:00 9,5 9,3 13 7 SW 0 1,2
19.01.2021 13:00:00 8,1 8,0 5 3 SSE 0 2,2
19.01.2021 12:00:00 7,1 7,0 4 2 E 0 2,6
19.01.2021 11:00:00 6,8 6,7 9 5 ESE 0 1,6
19.01.2021 10:00:00 7,2 7,2 4 2 ESE 0 1,4
19.01.2021 09:00:00 6,8 6,7 2 1 NNE 0 2,4
19.01.2021 08:00:00 7,4 7,3 4 2 N 0 2,0
19.01.2021 07:00:00 7,5 7,4 4 2 SW 0 2,0
19.01.2021 06:00:00 7,6 7,5 5 3 WSW 0 1,2
19.01.2021 05:00:00 7,6 7,5 5 3 WSW 0 1,2
19.01.2021 04:00:00 7,7 7,5 8 4 W 0 0,4
19.01.2021 03:00:00 7,7 7,5 8 4 WSW 0 0,6
19.01.2021 02:00:00 7,5 7,4 8 4 WSW 0 0,2
19.01.2021 01:00:00 7,6 7,4 8 4 WSW 0 0,2
19.01.2021 00:00:00 7,5 7,4 5 3 WSW - 0,6
18.01.2021 23:00:00 7,4 7,2 8 4 WSW 0 0,2
18.01.2021 22:00:00 7,6 7,3 9 5 WSW 0 0,6
18.01.2021 21:00:00 7,4 7,1 9 5 SW 0 0,6
18.01.2021 20:00:00 7,0 6,4 5 3 SW 0 0,0
18.01.2021 19:00:00 7,0 6,3 13 7 SW 0 0,0
18.01.2021 18:00:00 6,4 5,7 5 3 SSW 0 0,0
18.01.2021 17:00:00 5,9 5,0 8 4 SSW 0 0,0
18.01.2021 16:00:00 5,7 4,2 9 5 SSW 0 0,0
18.01.2021 15:00:00 6,0 4,6 9 5 WSW 0 0,0
18.01.2021 14:00:00 6,0 4,4 15 8 WSW 6 0,0
18.01.2021 13:00:00 5,4 4,2 13 7 WSW 0 0,0
18.01.2021 12:00:00 4,8 3,6 13 7 WSW 0 0,0
18.01.2021 11:00:00 4,1 3,0 13 7 SW 0 0,0
18.01.2021 10:00:00 3,2 2,6 9 5 SW 0 0,0
18.01.2021 09:00:00 2,9 2,0 5 3 SW 0 0,0
18.01.2021 08:00:00 3,6 2,6 15 8 W 0 0,0
18.01.2021 07:00:00 3,7 2,7 15 8 W 0 0,0
18.01.2021 06:00:00 3,6 2,6 11 6 WSW 0 0,0

tt = Température de l'air
td = dewpoint
ff = Vitesse du vent
dd = Direction du vent
sd = Ensoleillement
rr = Quantités de précipitations

stations d'obs. à proximité